createdAt,value
2023-03-03T00:02:29.131Z,19.63
2023-03-03T00:05:35.838Z,22.30
2023-03-03T00:08:40.297Z,23.95
2023-03-03T00:11:43.175Z,25.85
2023-03-03T00:14:45.979Z,24.08
2023-03-03T00:17:49.214Z,21.70
2023-03-03T00:21:01.257Z,23.33
2023-03-03T00:24:21.293Z,22.73
2023-03-03T00:27:31.097Z,21.77
2023-03-03T00:30:33.937Z,22.52
2023-03-03T00:33:46.257Z,22.60
2023-03-03T00:36:52.067Z,22.73
2023-03-03T00:40:03.027Z,21.92
2023-03-03T00:43:18.915Z,22.63
2023-03-03T00:46:23.328Z,23.73
2023-03-03T00:49:27.436Z,23.50
2023-03-03T00:52:30.435Z,24.05
2023-03-03T00:55:34.779Z,22.90
2023-03-03T00:58:37.680Z,23.48
2023-03-03T01:01:40.933Z,23.63
2023-03-03T01:04:50.066Z,24.30
2023-03-03T01:07:52.901Z,23.80
2023-03-03T01:10:58.748Z,24.48
2023-03-03T01:14:03.150Z,25.00
2023-03-03T01:17:06.267Z,27.38
2023-03-03T01:20:11.102Z,25.33
2023-03-03T01:23:14.087Z,27.10
2023-03-03T01:26:17.187Z,28.63
2023-03-03T01:29:20.164Z,28.52
2023-03-03T01:32:24.325Z,28.02
2023-03-03T01:35:27.390Z,27.73
2023-03-03T01:38:30.471Z,27.35
2023-03-03T01:41:33.827Z,27.38
2023-03-03T01:44:36.555Z,28.50
2023-03-03T01:47:39.608Z,27.93
2023-03-03T01:51:05.622Z,27.10
2023-03-03T01:54:18.664Z,29.95
2023-03-03T01:57:31.533Z,29.40
2023-03-03T02:00:38.201Z,28.55
2023-03-03T02:03:42.235Z,29.30
2023-03-03T02:06:51.601Z,29.33
2023-03-03T02:10:16.528Z,29.30
2023-03-03T02:13:19.276Z,29.10
2023-03-03T02:16:22.135Z,30.15
2023-03-03T02:20:08.722Z,33.87
2023-03-03T02:23:31.061Z,30.47
2023-03-03T02:26:37.451Z,31.00
2023-03-03T02:29:42.997Z,34.05
2023-03-03T02:32:46.671Z,30.70
2023-03-03T02:35:49.873Z,30.45
2023-03-03T02:39:10.778Z,29.83
2023-03-03T02:42:26.764Z,28.77
2023-03-03T02:45:31.857Z,25.75
2023-03-03T02:48:34.630Z,27.00
2023-03-03T02:51:38.055Z,29.07
2023-03-03T02:54:40.910Z,27.33
2023-03-03T02:57:44.055Z,28.33
2023-03-03T03:00:49.794Z,28.52
2023-03-03T03:03:55.881Z,26.67
2023-03-03T03:07:00.389Z,26.67
2023-03-03T03:10:05.918Z,26.83
2023-03-03T03:13:12.082Z,25.85
2023-03-03T03:16:15.154Z,25.25
2023-03-03T03:19:17.972Z,25.63
2023-03-03T03:22:21.282Z,24.17
2023-03-03T03:25:25.001Z,23.67
2023-03-03T03:28:28.482Z,23.42
2023-03-03T03:31:32.248Z,23.00
2023-03-03T03:34:35.026Z,22.83
2023-03-03T03:37:38.107Z,20.60
2023-03-03T03:40:41.073Z,22.17
2023-03-03T03:43:44.063Z,21.55
2023-03-03T03:46:47.400Z,20.60
2023-03-03T03:49:50.270Z,22.30
2023-03-03T03:52:53.424Z,22.13
2023-03-03T03:56:01.235Z,21.97
2023-03-03T03:59:06.669Z,23.08
2023-03-03T04:02:09.666Z,23.15
2023-03-03T04:05:13.365Z,24.05
2023-03-03T04:08:16.491Z,22.67
2023-03-03T04:11:19.824Z,22.37
2023-03-03T04:14:22.907Z,21.48
2023-03-03T04:17:25.703Z,21.33
2023-03-03T04:20:29.270Z,20.33
2023-03-03T04:23:32.645Z,22.10
2023-03-03T04:26:37.186Z,21.97
2023-03-03T04:29:42.443Z,21.63
2023-03-03T04:32:46.265Z,21.60
2023-03-03T04:35:49.750Z,27.92
2023-03-03T04:38:53.778Z,23.73
2023-03-03T04:41:56.647Z,23.63
2023-03-03T04:44:59.944Z,26.27
2023-03-03T04:48:03.437Z,25.20
2023-03-03T04:51:07.121Z,25.73
2023-03-03T04:54:11.753Z,25.55
2023-03-03T04:57:14.579Z,26.10
2023-03-03T05:00:18.349Z,25.55
2023-03-03T05:03:21.858Z,29.13
2023-03-03T05:06:25.475Z,31.02
2023-03-03T05:09:28.155Z,28.77
2023-03-03T05:12:30.984Z,28.00
2023-03-03T05:15:33.758Z,32.30
2023-03-03T05:18:36.810Z,30.48
2023-03-03T05:21:42.830Z,34.80
2023-03-03T05:24:49.236Z,33.55
2023-03-03T05:27:52.017Z,33.67
2023-03-03T05:30:54.808Z,33.10
2023-03-03T05:33:57.608Z,32.22
2023-03-03T05:37:00.368Z,30.05
2023-03-03T05:40:03.253Z,31.80
2023-03-03T05:43:07.242Z,29.33
2023-03-03T05:46:10.744Z,30.20
2023-03-03T05:49:13.515Z,29.98
2023-03-03T05:52:16.347Z,37.05
2023-03-03T05:55:20.172Z,36.65
2023-03-03T05:58:23.002Z,35.50
2023-03-03T06:01:25.800Z,34.33
2023-03-03T06:04:28.578Z,33.53
2023-03-03T06:07:31.506Z,35.15
2023-03-03T06:10:34.292Z,33.58
2023-03-03T06:13:41.547Z,31.57
2023-03-03T06:16:44.267Z,34.47
2023-03-03T06:19:48.564Z,31.60
2023-03-03T06:22:51.811Z,38.17
2023-03-03T06:25:54.736Z,36.90
2023-03-03T06:28:57.598Z,27.43
2023-03-03T06:32:00.670Z,27.73
2023-03-03T06:35:03.731Z,28.10
2023-03-03T06:38:06.605Z,27.52
2023-03-03T06:41:24.281Z,25.58
2023-03-03T06:45:11.394Z,25.30
2023-03-03T06:48:34.144Z,26.38
2023-03-03T06:51:40.075Z,24.05
2023-03-03T06:54:43.017Z,25.17
2023-03-03T06:57:48.602Z,23.73
2023-03-03T07:00:58.482Z,24.13
2023-03-03T07:04:01.725Z,24.95
2023-03-03T07:07:15.408Z,24.83
2023-03-03T07:10:27.913Z,24.90
2023-03-03T07:13:33.016Z,24.58
2023-03-03T07:16:47.476Z,25.57
2023-03-03T07:19:50.409Z,24.58
2023-03-03T07:22:54.020Z,22.92
2023-03-03T07:25:57.082Z,24.92
2023-03-03T07:29:28.660Z,25.80
2023-03-03T07:32:54.340Z,22.53
2023-03-03T07:36:00.316Z,24.05
2023-03-03T07:39:20.084Z,29.13
2023-03-03T07:42:38.908Z,22.10
2023-03-03T07:46:28.264Z,19.92
2023-03-03T07:49:40.062Z,21.53
2023-03-03T07:52:57.274Z,22.20
2023-03-03T07:56:00.177Z,21.35
2023-03-03T07:59:18.110Z,21.00
2023-03-03T08:02:44.044Z,21.00
2023-03-03T08:05:49.450Z,20.20
2023-03-03T08:08:52.790Z,21.42
2023-03-03T08:12:18.994Z,20.77
2023-03-03T08:15:30.330Z,20.70
2023-03-03T08:18:47.782Z,21.20
2023-03-03T08:22:04.143Z,23.53
2023-03-03T08:25:08.149Z,24.70
2023-03-03T08:28:17.583Z,24.65
2023-03-03T08:31:38.169Z,24.25
2023-03-03T08:34:44.927Z,23.90
2023-03-03T08:37:48.553Z,23.20
2023-03-03T08:40:51.413Z,23.20
2023-03-03T08:43:54.067Z,22.33
2023-03-03T08:46:56.898Z,20.95
2023-03-03T08:49:59.831Z,20.80
2023-03-03T08:53:03.279Z,22.33
2023-03-03T08:56:07.128Z,23.95
2023-03-03T08:59:12.397Z,28.48
2023-03-03T09:02:18.080Z,28.48
2023-03-03T09:05:22.214Z,22.38
2023-03-03T09:08:25.074Z,20.13
2023-03-03T09:11:29.825Z,20.98
2023-03-03T09:14:32.788Z,20.17
2023-03-03T09:17:36.071Z,19.27
2023-03-03T09:20:41.856Z,20.27
2023-03-03T09:23:53.396Z,20.63
2023-03-03T09:26:59.143Z,20.33
2023-03-03T09:30:12.103Z,20.65
2023-03-03T09:33:25.706Z,20.17
2023-03-03T09:36:29.616Z,19.77
2023-03-03T09:39:37.161Z,19.90
2023-03-03T09:42:51.024Z,20.50
2023-03-03T09:45:53.768Z,20.52
2023-03-03T09:49:16.126Z,20.10
2023-03-03T09:52:34.701Z,20.25
2023-03-03T09:56:03.022Z,21.57
2023-03-03T09:59:24.909Z,21.88
2023-03-03T10:03:02.104Z,21.73
2023-03-03T10:06:25.501Z,21.27
2023-03-03T10:09:52.617Z,22.23
2023-03-03T10:13:12.397Z,20.23
2023-03-03T10:16:34.040Z,21.40
2023-03-03T10:19:46.696Z,17.85
2023-03-03T10:22:55.634Z,19.42
2023-03-03T10:26:26.854Z,20.02
2023-03-03T10:29:56.780Z,19.63
2023-03-03T10:33:14.995Z,19.80
2023-03-03T10:36:34.949Z,21.05
2023-03-03T10:39:43.609Z,19.33
2023-03-03T10:43:05.289Z,16.65
2023-03-03T10:46:14.109Z,14.97
2023-03-03T10:49:53.897Z,15.95
2023-03-03T10:53:30.066Z,15.88
2023-03-03T10:56:52.826Z,14.63
2023-03-03T11:00:33.175Z,15.70
2023-03-03T11:03:41.900Z,15.97
2023-03-03T11:07:12.842Z,15.52
2023-03-03T11:10:30.552Z,13.98
2023-03-03T11:13:33.556Z,14.82
2023-03-03T11:16:49.039Z,14.10
2023-03-03T11:20:07.154Z,15.50
2023-03-03T11:23:42.391Z,15.05
2023-03-03T11:27:24.038Z,14.50
2023-03-03T11:30:45.659Z,13.52
2023-03-03T11:34:07.193Z,11.73
2023-03-03T11:37:24.519Z,9.83
2023-03-03T11:40:47.189Z,10.20
2023-03-03T11:44:16.341Z,9.52
2023-03-03T11:47:33.859Z,12.95
2023-03-03T11:50:43.774Z,10.90
2023-03-03T11:53:46.586Z,11.80
2023-03-03T11:56:54.957Z,10.23
2023-03-03T12:00:08.433Z,11.60
2023-03-03T12:03:26.802Z,13.52
2023-03-03T12:06:29.563Z,12.85
2023-03-03T12:10:18.068Z,12.17
2023-03-03T12:13:36.921Z,14.88
2023-03-03T12:16:45.768Z,12.40
2023-03-03T12:19:55.017Z,13.93
2023-03-03T12:23:19.354Z,12.73
2023-03-03T12:26:41.331Z,11.30
2023-03-03T12:30:04.683Z,13.05
2023-03-03T12:33:13.134Z,11.90
2023-03-03T12:36:28.042Z,11.77
2023-03-03T12:39:45.950Z,12.40
2023-03-03T12:43:18.385Z,11.27
2023-03-03T12:46:42.981Z,12.65
2023-03-03T12:50:10.040Z,13.75
2023-03-03T12:53:43.288Z,12.20
2023-03-03T12:57:02.278Z,13.30
2023-03-03T13:00:11.277Z,13.20
2023-03-03T13:03:49.658Z,11.88
2023-03-03T13:07:16.356Z,12.85
2023-03-03T13:10:35.006Z,10.90
2023-03-03T13:13:57.176Z,12.45
2023-03-03T13:17:18.523Z,13.10
2023-03-03T13:20:36.217Z,11.90
2023-03-03T13:24:00.899Z,10.95
2023-03-03T13:27:21.209Z,11.45
2023-03-03T13:30:47.204Z,11.15
2023-03-03T13:33:59.641Z,10.40
2023-03-03T13:37:16.138Z,10.82
2023-03-03T13:40:26.740Z,10.48
2023-03-03T13:43:34.379Z,11.50
2023-03-03T13:46:47.643Z,10.90
2023-03-03T13:49:59.484Z,10.50
2023-03-03T13:53:17.490Z,10.45
2023-03-03T13:56:48.304Z,10.68
2023-03-03T14:00:15.234Z,11.73
2023-03-03T14:03:52.396Z,12.38
2023-03-03T14:07:03.529Z,14.27
2023-03-03T14:10:17.458Z,14.05
2023-03-03T14:13:27.186Z,13.73
2023-03-03T14:16:48.840Z,12.95
2023-03-03T14:20:15.881Z,13.77
2023-03-03T14:24:02.342Z,14.00
2023-03-03T14:27:23.458Z,15.10
2023-03-03T14:30:43.312Z,14.45
2023-03-03T14:33:58.589Z,15.43
2023-03-03T14:37:31.094Z,17.27
2023-03-03T14:40:43.040Z,17.70
2023-03-03T14:43:58.033Z,17.23
2023-03-03T14:47:09.560Z,17.33
2023-03-03T14:50:31.033Z,19.15
2023-03-03T14:53:37.373Z,18.88
2023-03-03T14:56:58.997Z,19.87
2023-03-03T15:00:12.473Z,18.52
2023-03-03T15:03:27.405Z,19.13
2023-03-03T15:06:34.999Z,18.60
2023-03-03T15:09:48.938Z,18.55
2023-03-03T15:12:52.610Z,18.13
2023-03-03T15:16:02.866Z,17.33
2023-03-03T15:19:31.022Z,17.73
2023-03-03T15:22:51.288Z,17.70
2023-03-03T15:26:12.216Z,19.15
2023-03-03T15:29:26.673Z,17.73
2023-03-03T15:32:39.052Z,18.42
2023-03-03T15:35:52.399Z,17.75
2023-03-03T15:39:14.996Z,18.00
2023-03-03T15:42:36.393Z,21.25
2023-03-03T15:46:18.570Z,18.70
2023-03-03T15:49:44.640Z,17.48
2023-03-03T15:53:12.145Z,17.98
2023-03-03T15:56:28.749Z,20.40
2023-03-03T15:59:58.920Z,20.75
2023-03-03T16:03:17.375Z,20.53
2023-03-03T16:06:57.896Z,21.00
2023-03-03T16:10:12.267Z,17.60
2023-03-03T16:13:27.218Z,17.13
2023-03-03T16:16:50.481Z,19.05
2023-03-03T16:20:16.872Z,17.00
2023-03-03T16:23:31.488Z,18.15
2023-03-03T16:26:59.402Z,18.83
2023-03-03T16:30:37.751Z,19.63
2023-03-03T16:33:55.193Z,18.60
2023-03-03T16:37:13.069Z,19.37
2023-03-03T16:40:22.282Z,21.02
2023-03-03T16:43:42.293Z,20.40
2023-03-03T16:46:50.758Z,22.42
2023-03-03T16:50:00.135Z,23.60
2023-03-03T16:53:33.848Z,24.07
2023-03-03T16:56:49.232Z,25.38
2023-03-03T17:00:15.176Z,24.88
2023-03-03T17:03:20.859Z,25.02
2023-03-03T17:06:59.096Z,25.65
2023-03-03T17:10:19.675Z,23.60
2023-03-03T17:14:00.304Z,22.75
2023-03-03T17:17:50.099Z,20.80
2023-03-03T17:20:59.187Z,19.80
2023-03-03T17:24:22.404Z,19.87
2023-03-03T17:27:46.888Z,21.37
2023-03-03T17:31:05.277Z,22.20
2023-03-03T17:34:11.149Z,22.52
2023-03-03T17:37:25.414Z,23.10
2023-03-03T17:40:37.533Z,25.50
2023-03-03T17:44:14.488Z,22.47
2023-03-03T17:47:42.878Z,24.15
2023-03-03T17:51:13.715Z,30.33
2023-03-03T17:54:27.641Z,31.77
2023-03-03T17:58:02.979Z,30.73
2023-03-03T18:01:43.776Z,25.27
2023-03-03T18:05:23.882Z,24.52
2023-03-03T18:09:13.195Z,24.05
2023-03-03T18:12:23.782Z,23.23
2023-03-03T18:15:40.057Z,24.92
2023-03-03T18:19:20.607Z,29.07
2023-03-03T18:22:30.822Z,34.45
2023-03-03T18:25:58.853Z,33.05
2023-03-03T18:29:07.863Z,34.20
2023-03-03T18:32:19.815Z,36.70
2023-03-03T18:35:35.441Z,41.97
2023-03-03T18:38:39.420Z,40.53
2023-03-03T18:42:05.151Z,47.42
2023-03-03T18:45:20.466Z,45.92
2023-03-03T18:48:49.007Z,51.97
2023-03-03T18:52:12.287Z,41.93
2023-03-03T18:55:15.515Z,41.67
2023-03-03T18:58:19.340Z,44.72
2023-03-03T19:01:32.030Z,81.72
2023-03-03T19:04:37.756Z,66.93
2023-03-03T19:07:40.744Z,66.60
2023-03-03T19:10:43.731Z,56.78
2023-03-03T19:13:47.053Z,44.63
2023-03-03T19:16:52.182Z,45.78
2023-03-03T19:20:15.533Z,37.97
2023-03-03T19:23:27.195Z,39.63
2023-03-03T19:26:50.352Z,39.40
2023-03-03T19:30:22.858Z,39.28
2023-03-03T19:33:50.221Z,48.92
2023-03-03T19:37:12.931Z,59.27
2023-03-03T19:40:21.838Z,94.37
2023-03-03T19:43:52.561Z,99.85
2023-03-03T19:47:04.543Z,95.00
2023-03-03T19:50:35.439Z,117.22
2023-03-03T19:53:44.956Z,127.10
2023-03-03T19:56:52.808Z,102.27
2023-03-03T20:00:06.265Z,90.25
2023-03-03T20:03:35.519Z,106.32
2023-03-03T20:07:04.286Z,99.88
2023-03-03T20:10:37.225Z,79.63
2023-03-03T20:14:21.899Z,64.07
2023-03-03T20:17:35.403Z,50.55
2023-03-03T20:21:13.552Z,42.97
2023-03-03T20:24:51.813Z,39.40
2023-03-03T20:28:21.725Z,30.77
2023-03-03T20:31:36.761Z,21.53
2023-03-03T20:34:58.052Z,19.73
2023-03-03T20:38:16.540Z,19.52
2023-03-03T20:41:37.836Z,21.35
2023-03-03T20:45:07.543Z,22.33
2023-03-03T20:48:43.356Z,19.77
2023-03-03T20:52:11.420Z,21.38
2023-03-03T20:55:17.069Z,21.73
2023-03-03T20:58:54.222Z,23.45
2023-03-03T21:02:21.937Z,21.17
2023-03-03T21:05:25.104Z,21.60
2023-03-03T21:08:48.825Z,21.08
2023-03-03T21:11:52.245Z,22.52
2023-03-03T21:15:04.419Z,20.25
2023-03-03T21:18:25.181Z,20.37
2023-03-03T21:21:30.585Z,20.97
2023-03-03T21:24:52.233Z,21.15
2023-03-03T21:28:23.469Z,21.90
2023-03-03T21:31:26.302Z,22.08
2023-03-03T21:34:30.319Z,22.60
2023-03-03T21:37:54.209Z,22.20
2023-03-03T21:41:01.860Z,22.83
2023-03-03T21:44:39.505Z,23.08
2023-03-03T21:47:42.749Z,22.42
2023-03-03T21:50:49.023Z,23.03
2023-03-03T21:53:51.971Z,22.87
2023-03-03T21:56:54.881Z,23.40
2023-03-03T21:59:57.678Z,24.52
2023-03-03T22:03:00.516Z,25.80
2023-03-03T22:06:03.456Z,27.33
2023-03-03T22:09:07.370Z,28.13
2023-03-03T22:12:10.315Z,25.92
2023-03-03T22:15:13.390Z,26.63
2023-03-03T22:18:18.488Z,28.05
2023-03-03T22:21:22.100Z,27.50
2023-03-03T22:24:24.917Z,25.30
2023-03-03T22:27:27.737Z,23.45
2023-03-03T22:30:30.603Z,26.05
2023-03-03T22:33:33.570Z,24.35
2023-03-03T22:36:36.445Z,27.40
2023-03-03T22:39:39.373Z,26.83
2023-03-03T22:42:42.594Z,27.50
2023-03-03T22:45:45.504Z,26.20
2023-03-03T22:48:48.339Z,25.48
2023-03-03T22:51:51.078Z,24.60
2023-03-03T22:54:53.828Z,25.40
2023-03-03T22:57:56.591Z,24.02
2023-03-03T23:00:59.452Z,24.73
2023-03-03T23:04:02.313Z,23.60
2023-03-03T23:07:05.078Z,23.37
2023-03-03T23:10:08.847Z,21.87
2023-03-03T23:13:11.980Z,23.17
2023-03-03T23:16:14.859Z,23.48
2023-03-03T23:19:17.768Z,23.13
2023-03-03T23:22:21.046Z,23.40
2023-03-03T23:25:24.610Z,24.70
2023-03-03T23:28:27.664Z,25.98
2023-03-03T23:31:30.939Z,29.90
2023-03-03T23:34:34.153Z,31.58
2023-03-03T23:37:36.998Z,36.07
2023-03-03T23:40:39.760Z,32.93
2023-03-03T23:43:42.560Z,31.65
2023-03-03T23:46:45.598Z,27.73
2023-03-03T23:49:48.488Z,29.13
2023-03-03T23:52:51.784Z,26.97
2023-03-03T23:55:54.960Z,25.63
2023-03-03T23:58:57.808Z,26.73
